Terminal Aerodrome Forecast
Issued by NWS

Home | Current Version | Previous Version | Text Only | Print | Product List | Glossary On
Versions: 1 2 3 4 5 6 7 8 9 10 11 12 13 14 15 16 17 18 19 20 21 22 23 24 25 26 27 28 29
000
FTUS42 KJAX 191900 AAA
TAFCRG
TAF AMD
KCRG 191951Z 1920/2018 27008KT P6SM VCTS SCT012CB BKN025
      TEMPO 1920/1921 27015G25KT 1/2SM TSRA BKN015CB
     FM200300 33011KT P6SM OVC008
     FM201000 35013G20KT P6SM OVC010
     FM201300 36015G23KT P6SM BKN015=

USA.gov is the U.S. government's official web portal to all federal, state and local government web resources and services.